Terminal Aerodrome Forecast
Issued by NWS

Home | Current Version | Previous Version | Text Only | Print | Product List | Glossary On
Versions: 1 2 3 4 5 6 7 8 9 10 11 12 13 14 15 16 17 18 19 20 21 22 23 24 25 26 27 28 29 30 31 32 33 34 35 36 37 38 39 40 41 42 43 44 45 46 47 48 49 50
187
FTUS41 KCTP 180304 AAE
TAFLNS
TAF AMD
KLNS 180304Z 1803/1824 00000KT 2SM BR OVC019
     FM180600 28008KT 4SM -SHSN BKN015 OVC035
     FM180900 30010KT P6SM SCT030
     FM181200 30009KT P6SM BKN100=

USA.gov is the U.S. government's official web portal to all federal, state and local government web resources and services.